Time;durP1;ratioP1;P1;durP2;ratioP2;P2;SDS_P1;SDS_P2;PMS_P1;PMS_P2;Temp;Humidity;BMP_temperature;BMP_pressure;BME280_temperature;BME280_humidity;BME280_pressure;Samples;Min_cycle;Max_cycle;Signal;HPM_P1;HPM_P2
2023/07/11 00:01:57;;;;;;;;;;;;;;;24.62;43.05;101317.59;4214295;28;19988;-57
2023/07/11 00:03:59;;;;;;;;;;;;;;;24.62;43.07;101314.91;4213731;28;19998;-57
2023/07/11 00:06:04;;;;;;;;;;;;;;;24.61;42.93;101313.22;4214003;28;19924;-57
2023/07/11 00:08:07;;;;;;;;;;;;;;;24.61;43.15;101311.38;4214582;28;20337;-57
2023/07/11 00:10:11;;;;;;;;;;;;;;;24.61;43.08;101306.00;4214137;28;19981;-57
2023/07/11 00:12:13;;;;;;;;;;;;;;;24.60;43.06;101311.50;4213814;28;19963;-57
2023/07/11 00:14:15;;;;;;;;;;;;;;;24.60;43.11;101312.34;4213028;28;19923;-57
2023/07/11 00:16:17;;;;;;;;;;;;;;;24.60;43.12;101303.44;4214110;28;19927;-57
2023/07/11 00:18:19;;;;;;;;;;;;;;;24.60;43.09;101295.38;4213433;28;19920;-57
2023/07/11 00:20:20;;;;;;;;;;;;;;;24.59;42.88;101296.34;4214144;28;19928;-57
2023/07/11 00:22:22;;;;;;;;;;;;;;;24.58;43.13;101298.19;4214028;28;19965;-57
2023/07/11 00:24:24;;;;;;;;;;;;;;;24.58;42.92;101292.81;4213077;28;19949;-57
2023/07/11 00:26:26;;;;;;;;;;;;;;;24.57;43.07;101291.13;4213982;28;19919;-58
2023/07/11 00:28:27;;;;;;;;;;;;;;;24.58;42.78;101287.41;4213470;28;19955;-57
2023/07/11 00:30:29;;;;;;;;;;;;;;;24.58;43.07;101291.97;4214088;28;20403;-57
2023/07/11 00:32:31;;;;;;;;;;;;;;;24.57;43.35;101291.13;4213850;28;19928;-57
2023/07/11 00:34:32;;;;;;;;;;;;;;;24.56;43.11;101295.63;4213094;28;19919;-57
2023/07/11 00:36:34;;;;;;;;;;;;;;;24.57;43.13;101291.13;4213668;28;19974;-57
2023/07/11 00:38:35;;;;;;;;;;;;;;;24.58;42.79;101290.09;4213571;28;20031;-57
2023/07/11 00:40:41;;;;;;;;;;;;;;;24.57;43.04;101296.50;4214045;28;20307;-57
2023/07/11 00:42:42;;;;;;;;;;;;;;;24.55;43.26;101293.91;4213521;28;20011;-56
2023/07/11 00:44:48;;;;;;;;;;;;;;;24.55;43.25;101293.09;4212644;28;19966;-58
2023/07/11 00:46:50;;;;;;;;;;;;;;;24.55;43.02;101296.59;4213615;28;20404;-57
2023/07/11 00:48:53;;;;;;;;;;;;;;;24.56;43.26;101289.41;4213674;28;19923;-57
2023/07/11 00:50:55;;;;;;;;;;;;;;;24.55;43.31;101285.00;4213851;28;19926;-57
2023/07/11 00:53:02;;;;;;;;;;;;;;;24.54;43.30;101283.31;4213622;28;20401;-57
2023/07/11 00:55:06;;;;;;;;;;;;;;;24.55;43.23;101291.22;4212589;28;19926;-57
2023/07/11 00:57:08;;;;;;;;;;;;;;;24.54;43.33;101286.84;4213336;28;20018;-57
2023/07/11 00:59:10;;;;;;;;;;;;;;;24.53;43.46;101276.22;4213629;28;20307;-57
2023/07/11 01:01:13;;;;;;;;;;;;;;;24.53;43.34;101281.59;4213766;28;19919;-57
2023/07/11 01:03:21;;;;;;;;;;;;;;;24.53;43.06;101284.28;4213714;28;19926;-57
2023/07/11 01:05:22;;;;;;;;;;;;;;;24.52;43.40;101288.81;4212482;28;19920;-57
2023/07/11 01:07:25;;;;;;;;;;;;;;;24.53;43.48;101286.97;4213438;28;20294;-58
2023/07/11 01:09:28;;;;;;;;;;;;;;;24.52;43.50;101286.13;4213338;28;19927;-57
2023/07/11 01:11:30;;;;;;;;;;;;;;;24.52;43.26;101290.63;4212985;28;19926;-57
2023/07/11 01:13:32;;;;;;;;;;;;;;;24.51;43.57;101295.19;4213553;28;20044;-57
2023/07/11 01:15:38;;;;;;;;;;;;;;;24.51;43.57;101300.56;4212667;28;20290;-57
2023/07/11 01:17:40;;;;;;;;;;;;;;;24.50;43.57;101282.72;4213509;28;19927;-57
2023/07/11 01:19:41;;;;;;;;;;;;;;;24.50;43.19;101293.47;4213426;28;20272;-57
2023/07/11 01:21:43;;;;;;;;;;;;;;;24.50;43.48;101281.88;4213327;28;19977;-57
2023/07/11 01:23:46;;;;;;;;;;;;;;;24.49;43.41;101278.31;4213194;28;19920;-57
2023/07/11 01:25:59;;;;;;;;;;;;;;;24.49;43.33;101281.00;4212648;28;19926;-58
2023/07/11 01:28:00;;;;;;;;;;;;;;;24.48;43.69;101275.75;4213414;28;19924;-57
2023/07/11 01:30:08;;;;;;;;;;;;;;;24.49;43.59;101274.78;4216327;28;20327;-57
2023/07/11 01:32:10;;;;;;;;;;;;;;;24.47;43.23;101277.59;4216965;28;19932;-57
2023/07/11 01:34:11;;;;;;;;;;;;;;;24.49;43.42;101272.09;4215846;28;20541;-57
2023/07/11 01:36:13;;;;;;;;;;;;;;;24.47;43.18;101276.75;4216498;28;20019;-57
2023/07/11 01:38:15;;;;;;;;;;;;;;;24.46;43.49;101275.03;4216681;28;19927;-58
2023/07/11 01:40:21;;;;;;;;;;;;;;;24.47;43.67;101276.75;4216357;28;19927;-58
2023/07/11 01:42:24;;;;;;;;;;;;;;;24.46;43.64;101277.72;4216657;28;20003;-57
2023/07/11 01:44:26;;;;;;;;;;;;;;;24.46;43.36;101269.66;4215837;28;19928;-57
2023/07/11 01:46:27;;;;;;;;;;;;;;;24.44;43.66;101269.81;4216433;28;19919;-57
2023/07/11 01:48:29;;;;;;;;;;;;;;;24.44;43.34;101272.50;4216756;28;20375;-57
2023/07/11 01:50:35;;;;;;;;;;;;;;;24.44;43.75;101266.28;4216098;28;19965;-58
2023/07/11 01:52:37;;;;;;;;;;;;;;;24.43;43.60;101270.78;4216366;28;19920;-57
2023/07/11 01:54:38;;;;;;;;;;;;;;;24.42;43.79;101260.16;4215215;28;20383;-58
2023/07/11 01:56:40;;;;;;;;;;;;;;;24.40;43.68;101263.84;4216084;28;19993;-57
2023/07/11 01:58:42;;;;;;;;;;;;;;;24.40;43.80;101253.09;4216964;28;19920;-57
2023/07/11 02:00:44;;;;;;;;;;;;;;;24.39;43.58;101251.38;4216501;28;19920;-57
2023/07/11 02:02:45;;;;;;;;;;;;;;;24.39;43.51;101251.38;4216580;28;20319;-57
2023/07/11 02:04:47;;;;;;;;;;;;;;;24.39;43.63;101250.53;4215226;28;19973;-56
2023/07/11 02:06:49;;;;;;;;;;;;;;;24.40;43.89;101257.63;4215947;28;19967;-58
2023/07/11 02:08:51;;;;;;;;;;;;;;;24.37;43.72;101250.63;4216008;28;20439;-57
2023/07/11 02:10:52;;;;;;;;;;;;;;;24.37;43.88;101249.81;4215040;28;20394;-58
2023/07/11 02:12:54;;;;;;;;;;;;;;;24.37;44.03;101244.44;4216555;28;19926;-57
2023/07/11 02:14:55;;;;;;;;;;;;;;;24.36;43.94;101246.28;4215307;28;19920;-58
2023/07/11 02:16:57;;;;;;;;;;;;;;;24.37;43.96;101244.44;4216030;28;20364;-57
2023/07/11 02:18:59;;;;;;;;;;;;;;;24.37;44.08;101244.44;4216030;28;19967;-57
2023/07/11 02:21:00;;;;;;;;;;;;;;;24.35;43.80;101241.88;4216465;28;20468;-57
2023/07/11 02:23:02;;;;;;;;;;;;;;;24.34;43.88;101237.47;4215694;28;20374;-57
2023/07/11 02:25:04;;;;;;;;;;;;;;;24.34;43.72;101231.22;4215122;28;20396;-58
2023/07/11 02:27:06;;;;;;;;;;;;;;;24.33;44.08;101235.78;4214536;28;20453;-56
2023/07/11 02:29:07;;;;;;;;;;;;;;;24.32;43.74;101226.00;4215728;28;20056;-57
2023/07/11 02:31:09;;;;;;;;;;;;;;;24.33;43.67;101218.81;4215770;28;19938;-57
2023/07/11 02:33:10;;;;;;;;;;;;;;;24.33;43.78;101224.19;4215690;28;20023;-57
2023/07/11 02:35:12;;;;;;;;;;;;;;;24.32;43.99;101217.94;4214496;28;19963;-57
2023/07/11 02:37:14;;;;;;;;;;;;;;;24.32;44.17;101220.63;4215880;28;19943;-57
2023/07/11 02:39:15;;;;;;;;;;;;;;;24.32;44.10;101225.16;4215503;28;19975;-57
2023/07/11 02:41:18;;;;;;;;;;;;;;;24.31;43.87;101221.59;4215201;28;19924;-57
2023/07/11 02:43:20;;;;;;;;;;;;;;;24.31;44.13;101220.75;4215433;28;19924;-54
2023/07/11 02:45:21;;;;;;;;;;;;;;;24.30;44.07;101219.06;4214540;28;20317;-56
2023/07/11 02:47:23;;;;;;;;;;;;;;;24.29;43.99;101210.16;4215510;28;20282;-56
2023/07/11 02:49:24;;;;;;;;;;;;;;;24.29;44.12;101212.84;4215146;28;19920;-56
2023/07/11 02:51:31;;;;;;;;;;;;;;;24.29;44.00;101212.84;4214522;28;20379;-57
2023/07/11 02:53:32;;;;;;;;;;;;;;;24.28;44.14;101211.13;4215164;28;19920;-57
2023/07/11 02:55:37;;;;;;;;;;;;;;;24.28;44.20;101210.25;4214455;28;19920;-58
2023/07/11 02:57:43;;;;;;;;;;;;;;;24.28;43.73;101199.50;4215178;28;20414;-57
2023/07/11 02:59:44;;;;;;;;;;;;;;;24.27;44.02;101204.06;4215361;28;19927;-57
2023/07/11 03:01:46;;;;;;;;;;;;;;;24.28;44.12;101207.56;4215037;28;19924;-57
2023/07/11 03:03:52;;;;;;;;;;;;;;;24.27;43.84;101198.66;4215253;28;19951;-57
2023/07/11 03:05:54;;;;;;;;;;;;;;;24.26;44.33;101196.97;4214166;28;19920;-57
2023/07/11 03:07:56;;;;;;;;;;;;;;;24.26;44.15;101196.13;4214971;28;19945;-57
2023/07/11 03:09:57;;;;;;;;;;;;;;;24.24;44.12;101196.22;4215143;28;19974;-57
2023/07/11 03:11:59;;;;;;;;;;;;;;;24.25;44.15;101197.94;4215074;28;19966;-57
2023/07/11 03:14:05;;;;;;;;;;;;;;;24.25;44.30;101200.63;4215503;28;19927;-57
2023/07/11 03:16:07;;;;;;;;;;;;;;;24.25;44.38;101195.25;4214139;28;19924;-57
2023/07/11 03:18:09;;;;;;;;;;;;;;;24.24;44.24;101197.09;4215226;28;19970;-57
2023/07/11 03:20:11;;;;;;;;;;;;;;;24.24;44.00;101190.84;4215204;28;20414;-56
2023/07/11 03:22:13;;;;;;;;;;;;;;;24.24;43.95;101193.53;4214997;28;19952;-57
2023/07/11 03:24:15;;;;;;;;;;;;;;;24.23;44.25;101192.72;4215049;28;19924;-58
2023/07/11 03:26:17;;;;;;;;;;;;;;;24.23;44.07;101191.88;4214340;28;19927;-60
2023/07/11 03:28:18;;;;;;;;;;;;;;;24.23;44.14;101189.19;4214894;28;20403;-57
2023/07/11 03:30:20;;;;;;;;;;;;;;;24.22;44.30;101179.41;4215020;28;20324;-57
2023/07/11 03:32:21;;;;;;;;;;;;;;;24.22;44.08;101182.09;4215042;28;20019;-57
2023/07/11 03:34:23;;;;;;;;;;;;;;;24.22;44.17;101180.25;4214482;28;19992;-57
2023/07/11 03:36:29;;;;;;;;;;;;;;;24.21;44.32;101181.22;4214364;28;20336;-57
2023/07/11 03:38:31;;;;;;;;;;;;;;;24.22;44.33;101176.72;4214821;28;19969;-57
2023/07/11 03:40:32;;;;;;;;;;;;;;;24.21;44.23;101175.00;4214929;28;19959;-57
2023/07/11 03:42:34;;;;;;;;;;;;;;;24.21;44.50;101169.63;4214823;28;19981;-57
2023/07/11 03:44:37;;;;;;;;;;;;;;;24.21;44.20;101166.94;4214029;28;19923;-57
2023/07/11 03:46:39;;;;;;;;;;;;;;;24.20;44.18;101162.56;4214645;28;19966;-57
2023/07/11 03:48:45;;;;;;;;;;;;;;;24.20;44.42;101166.09;4214919;28;19944;-57
2023/07/11 03:50:47;;;;;;;;;;;;;;;24.07;43.99;101144.81;4214363;28;19946;-57
2023/07/11 03:52:48;;;;;;;;;;;;;;;24.19;44.10;101168.91;4213914;28;19951;-57
2023/07/11 03:54:50;;;;;;;;;;;;;;;24.19;44.34;101168.91;4213894;28;19930;-57
2023/07/11 03:56:51;;;;;;;;;;;;;;;24.19;44.47;101168.91;4214634;28;19962;-57
2023/07/11 03:58:55;;;;;;;;;;;;;;;24.18;44.38;101164.50;4214334;28;19920;-57
2023/07/11 04:00:57;;;;;;;;;;;;;;;24.18;44.42;101159.13;4214549;28;19959;-56
2023/07/11 04:02:58;;;;;;;;;;;;;;;24.18;44.30;101156.44;4214390;28;19949;-57
2023/07/11 04:05:00;;;;;;;;;;;;;;;24.17;44.58;101160.13;4213500;28;19923;-57
2023/07/11 04:07:02;;;;;;;;;;;;;;;24.17;44.59;101152.06;4214214;28;19928;-57
2023/07/11 04:09:04;;;;;;;;;;;;;;;24.16;44.49;101159.28;4214339;28;19920;-57
2023/07/11 04:11:05;;;;;;;;;;;;;;;24.16;44.30;101158.44;4214111;28;19920;-57
2023/07/11 04:13:07;;;;;;;;;;;;;;;24.16;44.25;101156.59;4212797;28;19927;-57
2023/07/11 04:15:14;;;;;;;;;;;;;;;24.15;44.42;101151.38;4213205;28;20003;-57
2023/07/11 04:17:15;;;;;;;;;;;;;;;24.15;44.58;101154.06;4214096;28;19927;-57
2023/07/11 04:19:17;;;;;;;;;;;;;;;24.15;44.64;101152.19;4212818;28;19989;-57
2023/07/11 04:21:18;;;;;;;;;;;;;;;24.15;44.63;101157.56;4214323;28;20321;-57
2023/07/11 04:23:20;;;;;;;;;;;;;;;24.14;44.46;101153.19;4214115;28;19966;-57
2023/07/11 04:25:27;;;;;;;;;;;;;;;24.14;44.35;101155.88;4212134;28;19954;-57
2023/07/11 04:27:28;;;;;;;;;;;;;;;24.13;44.51;101150.63;4214224;28;19920;-57
2023/07/11 04:29:30;;;;;;;;;;;;;;;24.13;44.59;101154.16;4214135;28;19930;-57
2023/07/11 04:31:32;;;;;;;;;;;;;;;24.13;44.61;101154.16;4213783;28;19923;-57
2023/07/11 04:33:33;;;;;;;;;;;;;;;24.13;44.33;101148.78;4213682;28;19928;-57
2023/07/11 04:35:35;;;;;;;;;;;;;;;24.13;44.62;101148.78;4213091;28;20313;-58
2023/07/11 04:37:37;;;;;;;;;;;;;;;24.13;44.47;101150.63;4213783;28;19931;-57
2023/07/11 04:39:39;;;;;;;;;;;;;;;24.13;44.49;101142.56;4213997;28;20426;-58
2023/07/11 04:41:40;;;;;;;;;;;;;;;24.12;44.55;101141.72;4214191;28;19954;-57
2023/07/11 04:43:42;;;;;;;;;;;;;;;24.12;44.51;101144.41;4213875;28;20229;-57
2023/07/11 04:45:43;;;;;;;;;;;;;;;24.12;44.40;101135.50;4212766;28;19955;-57
2023/07/11 04:47:45;;;;;;;;;;;;;;;24.12;44.33;101138.19;4213728;28;20387;-57
2023/07/11 04:49:48;;;;;;;;;;;;;;;24.12;44.71;101139.06;4213478;28;19927;-57
2023/07/11 04:51:50;;;;;;;;;;;;;;;24.11;44.41;101139.16;4213982;28;19926;-57
2023/07/11 04:53:52;;;;;;;;;;;;;;;24.11;44.38;101142.72;4213606;28;19924;-57
2023/07/11 04:56:01;;;;;;;;;;;;;;;24.11;44.71;101145.41;4212638;28;20298;-57
2023/07/11 04:58:02;;;;;;;;;;;;;;;24.11;44.21;101139.16;4213741;28;19951;-57
2023/07/11 05:00:05;;;;;;;;;;;;;;;24.11;44.44;101141.84;4213766;28;19920;-57
2023/07/11 05:02:07;;;;;;;;;;;;;;;24.10;44.70;101141.00;4213991;28;19965;-57
2023/07/11 05:04:13;;;;;;;;;;;;;;;24.11;44.69;101144.53;4212684;28;20023;-57
2023/07/11 05:06:15;;;;;;;;;;;;;;;24.11;44.37;101147.22;4212657;28;20405;-57
2023/07/11 05:08:16;;;;;;;;;;;;;;;24.11;44.71;101145.41;4213616;28;19943;-57
2023/07/11 05:10:18;;;;;;;;;;;;;;;24.11;44.51;101148.09;4213255;28;19920;-56
2023/07/11 05:12:24;;;;;;;;;;;;;;;24.12;44.51;101154.31;4213678;28;19920;-57
2023/07/11 05:14:27;;;;;;;;;;;;;;;24.12;44.45;101154.31;4212232;28;19924;-57
2023/07/11 05:16:31;;;;;;;;;;;;;;;24.12;44.64;101160.53;4212599;28;20291;-56
2023/07/11 05:18:40;;;;;;;;;;;;;;;24.12;44.63;101146.25;4213204;28;20310;-57
2023/07/11 05:20:51;;;;;;;;;;;;;;;24.13;44.52;101156.00;4213516;28;19968;-56
2023/07/11 05:22:53;;;;;;;;;;;;;;;24.13;44.61;101154.16;4213698;28;19927;-57
2023/07/11 05:24:55;;;;;;;;;;;;;;;24.12;44.45;101160.53;4212683;28;19927;-57
2023/07/11 05:26:56;;;;;;;;;;;;;;;24.12;44.62;101160.53;4213366;28;19920;-56
2023/07/11 05:28:58;;;;;;;;;;;;;;;23.89;44.55;101120.34;4246068;28;20282;-57
2023/07/11 05:31:00;;;;;;;;;;;;;;;24.11;44.85;101144.53;4212096;28;19923;-57
2023/07/11 05:33:02;;;;;;;;;;;;;;;24.12;44.69;101148.94;4213176;28;20011;-57
2023/07/11 05:35:04;;;;;;;;;;;;;;;24.12;44.70;101151.63;4212579;28;19946;-57
2023/07/11 05:37:05;;;;;;;;;;;;;;;24.12;45.02;101141.72;4213441;28;19973;-56
2023/07/11 05:39:15;;;;;;;;;;;;;;;24.12;45.14;101146.25;4213317;28;20008;-57
2023/07/11 05:41:21;;;;;;;;;;;;;;;24.11;45.32;101133.78;4213409;28;20240;-57
2023/07/11 05:43:23;;;;;;;;;;;;;;;24.11;45.16;101136.47;4213181;28;20010;-57
2023/07/11 05:45:24;;;;;;;;;;;;;;;24.11;45.21;101131.97;4212256;28;19946;-58
2023/07/11 05:47:26;;;;;;;;;;;;;;;24.10;44.88;101132.94;4213100;28;20370;-57
2023/07/11 05:49:32;;;;;;;;;;;;;;;24.10;45.02;101130.25;4213446;28;19920;-57
2023/07/11 05:51:39;;;;;;;;;;;;;;;24.11;44.74;101128.41;4213224;28;19930;-57
2023/07/11 05:53:46;;;;;;;;;;;;;;;24.12;45.20;101128.28;4213243;28;20011;-57
2023/07/11 05:55:47;;;;;;;;;;;;;;;24.10;45.20;101116.81;4212388;28;19969;-57
2023/07/11 05:57:49;;;;;;;;;;;;;;;24.11;45.30;101131.09;4212982;28;20026;-57
2023/07/11 05:59:50;;;;;;;;;;;;;;;24.11;44.97;101128.41;4213376;28;19920;-57
2023/07/11 06:01:57;;;;;;;;;;;;;;;24.11;45.12;101129.28;4212886;28;19963;-57
2023/07/11 06:04:09;;;;;;;;;;;;;;;24.11;44.95;101125.72;4213276;28;20415;-55
2023/07/11 06:06:17;;;;;;;;;;;;;;;24.11;44.76;101125.72;4212202;28;19947;-58
2023/07/11 06:08:18;;;;;;;;;;;;;;;24.12;45.29;101127.44;4213216;28;19962;-57
2023/07/11 06:10:20;;;;;;;;;;;;;;;24.10;44.59;101127.56;4213018;28;20296;-57
2023/07/11 06:12:26;;;;;;;;;;;;;;;24.11;45.08;101118.53;4213292;28;19926;-58
2023/07/11 06:14:33;;;;;;;;;;;;;;;24.11;45.11;101126.59;4213020;28;20034;-58
2023/07/11 06:16:35;;;;;;;;;;;;;;;24.11;44.45;101134.66;4213346;28;19920;-57
2023/07/11 06:18:37;;;;;;;;;;;;;;;24.09;45.07;101132.06;4216348;28;19948;-57
2023/07/11 06:20:38;;;;;;;;;;;;;;;24.09;44.84;101124.00;4216109;28;19927;-57
2023/07/11 06:22:40;;;;;;;;;;;;;;;24.11;45.27;101123.03;4216171;28;19920;-57
2023/07/11 06:24:42;;;;;;;;;;;;;;;24.11;44.53;101128.41;4214645;28;19920;-57
2023/07/11 06:26:44;;;;;;;;;;;;;;;24.09;44.72;101124.00;4215008;28;20372;-57
2023/07/11 06:28:45;;;;;;;;;;;;;;;24.11;44.82;101123.03;4215799;28;19920;-58
2023/07/11 06:30:47;;;;;;;;;;;;;;;24.10;44.72;101114.13;4215448;28;19926;-56
2023/07/11 06:32:48;;;;;;;;;;;;;;;24.10;45.00;101114.13;4215927;28;20022;-55
2023/07/11 06:34:50;;;;;;;;;;;;;;;24.11;45.19;101114.97;4216062;28;20007;-56
2023/07/11 06:36:52;;;;;;;;;;;;;;;24.11;44.57;101117.66;4214774;28;19920;-57
2023/07/11 06:38:58;;;;;;;;;;;;;;;24.11;44.83;101114.97;4216022;28;19920;-57
2023/07/11 06:41:00;;;;;;;;;;;;;;;24.12;44.74;101124.75;4215847;28;19989;-56
2023/07/11 06:43:01;;;;;;;;;;;;;;;24.11;44.90;101115.84;4215914;28;20050;-56
2023/07/11 06:45:03;;;;;;;;;;;;;;;24.12;44.55;101114.00;4214926;28;19944;-55
2023/07/11 06:47:05;;;;;;;;;;;;;;;24.11;44.96;101123.91;4214185;28;19927;-58
2023/07/11 06:49:11;;;;;;;;;;;;;;;24.13;44.92;101118.38;4215613;28;20002;-58
2023/07/11 06:51:17;;;;;;;;;;;;;;;24.12;44.58;101114.00;4215729;28;20000;-57
2023/07/11 06:53:20;;;;;;;;;;;;;;;24.12;44.40;101114.00;4215417;28;19927;-57
2023/07/11 06:55:21;;;;;;;;;;;;;;;24.12;44.73;101114.88;4214780;28;19943;-57
2023/07/11 06:57:23;;;;;;;;;;;;;;;24.12;44.39;101112.19;4215428;28;19931;-57
2023/07/11 06:59:24;;;;;;;;;;;;;;;24.13;44.81;101115.69;4215220;28;19923;-57
2023/07/11 07:01:32;;;;;;;;;;;;;;;24.13;44.79;101110.31;4215328;28;19958;-57
2023/07/11 07:03:36;;;;;;;;;;;;;;;24.15;44.66;101109.19;4215492;28;20415;-57
2023/07/11 07:05:38;;;;;;;;;;;;;;;24.18;44.72;101105.41;4214402;28;20053;-60
2023/07/11 07:07:39;;;;;;;;;;;;;;;24.17;44.98;101107.25;4215055;28;20462;-59
2023/07/11 07:09:41;;;;;;;;;;;;;;;24.20;44.88;101103.44;4215263;28;19959;-58
2023/07/11 07:11:42;;;;;;;;;;;;;;;24.23;44.86;101109.38;4214962;28;19920;-59
2023/07/11 07:13:44;;;;;;;;;;;;;;;24.26;44.74;101107.44;4215047;28;19974;-59
2023/07/11 07:16:04;;;;;;;;;;;;;;;24.29;44.61;101108.00;4214242;28;20554;-59
2023/07/11 07:18:06;;;;;;;;;;;;;;;24.32;44.20;101117.63;4215124;28;19998;-58
2023/07/11 07:20:09;;;;;;;;;;;;;;;24.34;44.19;101102.22;4215205;28;20397;-58
2023/07/11 07:22:10;;;;;;;;;;;;;;;24.36;44.50;101105.63;4215300;28;19920;-58
2023/07/11 07:24:12;;;;;;;;;;;;;;;24.38;44.50;101106.34;4213784;28;19927;-58
2023/07/11 07:26:13;;;;;;;;;;;;;;;24.39;44.26;101099.97;4214091;28;19930;-58
2023/07/11 07:28:15;;;;;;;;;;;;;;;24.41;44.18;101095.31;4214560;28;19973;-59
2023/07/11 07:30:16;;;;;;;;;;;;;;;24.42;44.04;101093.47;4215097;28;19974;-58
2023/07/11 07:32:18;;;;;;;;;;;;;;;24.45;43.91;101098.56;4215222;28;19920;-58
2023/07/11 07:34:19;;;;;;;;;;;;;;;24.46;43.72;101095.75;4214733;28;19923;-58
2023/07/11 07:36:21;;;;;;;;;;;;;;;24.48;44.04;101090.25;4213754;28;20368;-58
2023/07/11 07:38:23;;;;;;;;;;;;;;;24.48;44.20;101083.00;4214922;28;19920;-58
2023/07/11 07:40:25;;;;;;;;;;;;;;;24.50;44.21;101082.91;4214902;28;19931;-58
2023/07/11 07:42:26;;;;;;;;;;;;;;;24.50;43.90;101088.28;4214225;28;19920;-58
2023/07/11 07:44:28;;;;;;;;;;;;;;;24.51;44.11;101077.38;4214825;28;20014;-58
2023/07/11 07:46:29;;;;;;;;;;;;;;;24.52;43.73;101076.41;4213833;28;19920;-58
2023/07/11 07:48:31;;;;;;;;;;;;;;;24.54;43.89;101077.09;4214832;28;19942;-58
2023/07/11 07:50:32;;;;;;;;;;;;;;;24.55;43.97;101078.78;4214711;28;19927;-59
2023/07/11 07:52:34;;;;;;;;;;;;;;;24.57;44.06;101078.69;4214645;28;20077;-58
2023/07/11 07:54:35;;;;;;;;;;;;;;;24.58;44.13;101076.81;4214781;28;19920;-58
2023/07/11 07:56:37;;;;;;;;;;;;;;;24.60;44.07;101075.69;4212117;28;20295;-58
2023/07/11 07:58:39;;;;;;;;;;;;;;;24.62;43.68;101068.34;4214553;28;19951;-58
2023/07/11 08:00:45;;;;;;;;;;;;;;;24.61;43.91;101063.97;4214564;28;19973;-58
2023/07/11 08:02:46;;;;;;;;;;;;;;;24.63;43.95;101066.50;4214412;28;19924;-58
2023/07/11 08:04:48;;;;;;;;;;;;;;;24.65;43.99;101072.59;4214506;28;20013;-57
2023/07/11 08:06:51;;;;;;;;;;;;;;;24.65;43.95;101069.91;4213292;28;19956;-58
2023/07/11 08:08:53;;;;;;;;;;;;;;;24.66;44.18;101068.97;4214515;28;19927;-58
2023/07/11 08:10:55;;;;;;;;;;;;;;;24.67;44.15;101065.28;4214172;28;19958;-59
2023/07/11 08:12:56;;;;;;;;;;;;;;;24.68;44.08;101065.13;4214556;28;20418;-58
2023/07/11 08:14:57;;;;;;;;;;;;;;;24.68;44.18;101065.13;4214269;28;19920;-57
2023/07/11 08:17:00;;;;;;;;;;;;;;;24.69;44.11;101058.78;4213327;28;20251;-58
2023/07/11 08:19:04;;;;;;;;;;;;;;;24.70;44.04;101054.22;4214124;28;19931;-57
2023/07/11 08:21:08;;;;;;;;;;;;;;;24.70;44.10;101044.34;4214332;28;19961;-58
2023/07/11 08:23:09;;;;;;;;;;;;;;;24.72;44.17;101038.81;4214437;28;20379;-57
2023/07/11 08:25:11;;;;;;;;;;;;;;;24.72;44.10;101036.97;4214125;28;19947;-58
2023/07/11 08:27:13;;;;;;;;;;;;;;;24.74;43.83;101041.34;4212831;28;20035;-59
2023/07/11 08:29:14;;;;;;;;;;;;;;;24.74;43.66;101038.66;4214262;28;19934;-58
2023/07/11 08:31:30;;;;;;;;;;;;;;;24.76;43.86;101039.38;4214438;28;20364;-57
2023/07/11 08:33:31;;;;;;;;;;;;;;;24.77;43.92;101033.03;4214023;28;19963;-58
2023/07/11 08:35:33;;;;;;;;;;;;;;;24.78;43.81;101035.56;4213138;28;19947;-58
2023/07/11 08:37:35;;;;;;;;;;;;;;;24.78;43.55;101032.88;4213779;28;19974;-58
2023/07/11 08:39:36;;;;;;;;;;;;;;;24.80;43.63;101030.91;4213462;28;19920;-58
2023/07/11 08:41:52;;;;;;;;;;;;;;;24.81;43.69;101024.53;4213533;28;19919;-58
2023/07/11 08:43:57;;;;;;;;;;;;;;;24.82;44.02;101022.69;4213816;28;20320;-58
2023/07/11 08:46:05;;;;;;;;;;;;;;;24.85;43.84;101025.09;4212829;28;19920;-57
2023/07/11 08:48:20;;;;;;;;;;;;;;;24.86;43.68;101019.56;4213831;28;20326;-58
2023/07/11 08:50:25;;;;;;;;;;;;;;;24.88;43.76;101024.81;4213931;28;19962;-59
2023/07/11 08:52:28;;;;;;;;;;;;;;;24.90;43.64;101021.97;4213880;28;19920;-59
2023/07/11 08:54:29;;;;;;;;;;;;;;;24.90;43.74;101017.47;4213324;28;19924;-57
2023/07/11 08:56:37;;;;;;;;;;;;;;;24.91;43.49;101016.47;4212734;28;19998;-58
2023/07/11 08:58:43;;;;;;;;;;;;;;;24.94;43.85;101020.72;4213915;28;20302;-58
2023/07/11 09:00:48;;;;;;;;;;;;;;;24.96;43.66;101019.56;4213676;28;19930;-58
2023/07/11 09:02:58;;;;;;;;;;;;;;;25.00;43.45;101004.84;4213485;28;19966;-58
2023/07/11 09:05:03;;;;;;;;;;;;;;;25.00;43.62;101002.16;4213771;28;20383;-58
2023/07/11 09:07:09;;;;;;;;;;;;;;;25.01;43.65;101003.84;4212437;28;19932;-58
2023/07/11 09:09:11;;;;;;;;;;;;;;;25.03;43.32;101004.56;4213477;28;19928;-58
2023/07/11 09:11:27;;;;;;;;;;;;;;;25.06;43.38;100999.91;4213581;28;19973;-57
2023/07/11 09:13:48;;;;;;;;;;;;;;;25.07;43.54;101006.97;4213691;28;20302;-58
2023/07/11 09:16:04;;;;;;;;;;;;;;;25.07;43.50;100998.88;4212622;28;20436;-59
2023/07/11 09:18:25;;;;;;;;;;;;;;;25.09;43.33;100991.53;4213626;28;19920;-59
2023/07/11 09:20:26;;;;;;;;;;;;;;;25.12;43.52;100996.63;4213481;28;19926;-58
2023/07/11 09:22:28;;;;;;;;;;;;;;;25.15;43.20;100993.63;4213541;28;19920;-58
2023/07/11 09:24:46;;;;;;;;;;;;;;;25.16;43.01;100992.66;4213149;28;20023;-59
2023/07/11 09:26:49;;;;;;;;;;;;;;;25.16;43.19;100980.03;4212676;28;20292;-59
2023/07/11 09:28:53;;;;;;;;;;;;;;;25.14;43.37;100978.47;4213831;28;19927;-59
2023/07/11 09:31:00;;;;;;;;;;;;;;;25.15;43.40;100989.13;4213499;28;19993;-59
2023/07/11 09:33:12;;;;;;;;;;;;;;;25.19;43.41;100981.63;4213316;28;19927;-59
2023/07/11 09:35:24;;;;;;;;;;;;;;;25.23;42.92;100990.25;4213520;28;19924;-59
2023/07/11 09:37:34;;;;;;;;;;;;;;;25.23;43.27;100977.63;4212600;28;19976;-58
2023/07/11 09:39:42;;;;;;;;;;;;;;;25.21;42.85;100974.22;4213068;28;19920;-58
2023/07/11 09:41:56;;;;;;;;;;;;;;;25.22;43.27;100975.94;4213446;28;19973;-58
2023/07/11 09:43:57;;;;;;;;;;;;;;;25.22;42.97;100965.16;4213238;28;20139;-59
2023/07/11 09:45:59;;;;;;;;;;;;;;;25.25;43.14;100975.66;4211115;28;20438;-59
2023/07/11 09:48:11;;;;;;;;;;;;;;;25.27;43.33;100965.56;4213572;28;19920;-58
2023/07/11 09:50:31;;;;;;;;;;;;;;;25.29;43.00;100963.59;4213422;28;19919;-59
2023/07/11 09:52:43;;;;;;;;;;;;;;;25.29;43.08;100958.19;4216258;28;19931;-59
2023/07/11 09:54:46;;;;;;;;;;;;;;;25.29;43.12;100951.97;4216481;28;19981;-59
2023/07/11 09:57:09;;;;;;;;;;;;;;;25.32;43.31;100951.69;4215591;28;19931;-58
2023/07/11 09:59:11;;;;;;;;;;;;;;;25.31;43.18;100949.97;4214416;28;19920;-60
2023/07/11 10:01:32;;;;;;;;;;;;;;;25.40;43.21;100954.53;4212806;28;20390;-59
2023/07/11 10:03:37;;;;;;;;;;;;;;;25.55;43.32;100949.50;4214661;28;19924;-61
2023/07/11 10:05:43;;;;;;;;;;;;;;;25.68;42.58;100943.81;4212710;28;20014;-61
2023/07/11 10:07:47;;;;;;;;;;;;;;;25.79;42.36;100942.75;4214764;28;20409;-60
2023/07/11 10:09:50;;;;;;;;;;;;;;;25.87;42.30;100939.31;4215347;28;19920;-60
2023/07/11 10:11:55;;;;;;;;;;;;;;;25.88;41.92;100936.47;4214995;28;19920;-60
2023/07/11 10:13:57;;;;;;;;;;;;;;;25.91;41.92;100936.19;4215229;28;20450;-60
2023/07/11 10:15:59;;;;;;;;;;;;;;;25.94;41.63;100938.59;4214707;28;19920;-59
2023/07/11 10:18:01;;;;;;;;;;;;;;;25.93;42.00;100931.50;4215033;28;19920;-59
2023/07/11 10:20:04;;;;;;;;;;;;;;;25.91;41.60;100927.25;4215207;28;19920;-59
2023/07/11 10:22:20;;;;;;;;;;;;;;;25.92;41.46;100918.16;4212354;28;19927;-59
2023/07/11 10:24:24;;;;;;;;;;;;;;;25.93;41.55;100919.84;4215161;28;20529;-59
2023/07/11 10:26:27;;;;;;;;;;;;;;;26.02;41.38;100916.25;4213917;28;19928;-60
2023/07/11 10:28:33;;;;;;;;;;;;;;;26.06;41.27;100912.25;4215335;28;19932;-60
2023/07/11 10:30:37;;;;;;;;;;;;;;;26.16;41.05;100912.22;4214938;28;20124;-58
2023/07/11 10:32:42;;;;;;;;;;;;;;;26.16;41.20;100912.22;4212573;28;20537;-58
2023/07/11 10:34:54;;;;;;;;;;;;;;;26.22;40.81;100905.38;4215187;28;19924;-58